createdAt,value
2017-11-25T00:09:23.000Z,1003.393
2017-11-25T00:29:23.000Z,1003.401
2017-11-25T00:39:23.000Z,1003.353
2017-11-25T00:49:23.000Z,1003.419
2017-11-25T00:59:23.000Z,1003.355
2017-11-25T01:09:23.000Z,1003.145
2017-11-25T01:19:23.000Z,1003.277
2017-11-25T01:29:23.000Z,1003.168
2017-11-25T01:39:23.000Z,1003.267
2017-11-25T01:49:23.000Z,1003.018
2017-11-25T01:59:23.000Z,1002.926
2017-11-25T02:09:23.000Z,1002.907
2017-11-25T02:19:23.000Z,1002.656
2017-11-25T02:29:23.000Z,1002.562
2017-11-25T02:39:23.000Z,1002.529
2017-11-25T02:49:23.000Z,1002.334
2017-11-25T02:59:23.000Z,1002.21
2017-11-25T03:09:23.000Z,1002.341
2017-11-25T03:19:24.000Z,1002.244
2017-11-25T03:29:24.000Z,1002.05
2017-11-25T03:39:23.000Z,1001.985
2017-11-25T03:49:23.000Z,1001.961
2017-11-25T03:59:23.000Z,1001.955
2017-11-25T04:09:23.000Z,1001.668
2017-11-25T04:19:23.000Z,1001.568
2017-11-25T04:29:23.000Z,1001.46
2017-11-25T04:39:23.000Z,1001.428
2017-11-25T04:49:27.000Z,1001.308
2017-11-25T04:59:23.000Z,1001.202
2017-11-25T05:09:23.000Z,1001.251
2017-11-25T05:19:23.000Z,1001.01
2017-11-25T05:29:24.000Z,1001.059
2017-11-25T05:39:23.000Z,1001.177
2017-11-25T05:49:23.000Z,1001.121
2017-11-25T05:59:23.000Z,1001.329
2017-11-25T06:09:23.000Z,1001.367
2017-11-25T06:19:23.000Z,1001.372
2017-11-25T06:29:23.000Z,1001.354
2017-11-25T06:39:23.000Z,1001.317
2017-11-25T06:49:23.000Z,1001.166
2017-11-25T06:59:23.000Z,1001.247
2017-11-25T07:09:23.000Z,1001.362
2017-11-25T07:19:23.000Z,1001.447
2017-11-25T07:29:23.000Z,1001.703
2017-11-25T07:39:23.000Z,1001.811
2017-11-25T07:49:24.000Z,1001.98
2017-11-25T07:59:24.000Z,1002.102
2017-11-25T08:09:24.000Z,1002.182
2017-11-25T08:19:24.000Z,1002.254
2017-11-25T08:29:24.000Z,1002.383
2017-11-25T08:39:24.000Z,1002.524
2017-11-25T08:49:24.000Z,1002.658
2017-11-25T08:59:24.000Z,1002.712
2017-11-25T09:09:24.000Z,1002.75
2017-11-25T09:19:24.000Z,1002.966
2017-11-25T09:29:24.000Z,1003.055
2017-11-25T09:39:24.000Z,1003.03
2017-11-25T09:49:24.000Z,1003.089
2017-11-25T09:59:24.000Z,1002.958
2017-11-25T10:09:24.000Z,1003.038
2017-11-25T10:19:24.000Z,1003.11
2017-11-25T10:29:24.000Z,1003.17
2017-11-25T10:39:24.000Z,1003.08
2017-11-25T10:49:24.000Z,1003.135
2017-11-25T10:59:24.000Z,1003.127
2017-11-25T11:09:24.000Z,1003.164
2017-11-25T11:19:24.000Z,1003.166
2017-11-25T11:29:24.000Z,1003.29
2017-11-25T11:39:24.000Z,1003.334
2017-11-25T11:49:24.000Z,1003.402
2017-11-25T11:59:24.000Z,1003.358
2017-11-25T12:09:24.000Z,1003.387
2017-11-25T12:19:24.000Z,1003.334
2017-11-25T12:29:24.000Z,1003.353
2017-11-25T12:39:24.000Z,1003.485
2017-11-25T12:49:24.000Z,1003.518
2017-11-25T12:59:24.000Z,1003.49
2017-11-25T13:09:24.000Z,1003.659
2017-11-25T13:19:24.000Z,1003.665
2017-11-25T13:29:24.000Z,1003.712
2017-11-25T13:39:24.000Z,1003.732
2017-11-25T13:49:24.000Z,1003.781
2017-11-25T13:59:24.000Z,1003.815
2017-11-25T14:09:24.000Z,1003.902
2017-11-25T14:19:24.000Z,1004.051
2017-11-25T14:29:24.000Z,1004.13
2017-11-25T14:39:24.000Z,1004.298
2017-11-25T14:49:24.000Z,1004.375
2017-11-25T14:59:24.000Z,1004.549
2017-11-25T15:09:24.000Z,1004.659
2017-11-25T15:19:24.000Z,1004.72
2017-11-25T15:29:24.000Z,1004.893
2017-11-25T15:39:24.000Z,1005.006
2017-11-25T15:49:24.000Z,1005.07
2017-11-25T15:59:24.000Z,1005.074
2017-11-25T16:09:25.000Z,1005.263
2017-11-25T16:19:25.000Z,1005.286
2017-11-25T16:29:25.000Z,1005.412
2017-11-25T16:39:25.000Z,1005.617
2017-11-25T16:49:25.000Z,1005.774
2017-11-25T16:59:25.000Z,1005.701
2017-11-25T17:09:25.000Z,1005.632
2017-11-25T17:19:26.000Z,1005.828
2017-11-25T17:29:25.000Z,1005.903
2017-11-25T17:39:25.000Z,1006.051
2017-11-25T17:49:25.000Z,1006.165
2017-11-25T17:59:25.000Z,1006.281
2017-11-25T18:09:25.000Z,1006.408
2017-11-25T18:19:25.000Z,1006.571
2017-11-25T18:29:25.000Z,1006.558
2017-11-25T18:39:25.000Z,1006.706
2017-11-25T18:49:25.000Z,1006.795
2017-11-25T18:59:25.000Z,1006.879
2017-11-25T19:09:25.000Z,1007.01
2017-11-25T19:19:28.000Z,1007.129
2017-11-25T19:29:25.000Z,1007.222
2017-11-25T19:49:25.000Z,1007.374
2017-11-25T19:59:25.000Z,1007.434
2017-11-25T20:09:25.000Z,1007.58
2017-11-25T20:19:25.000Z,1007.669
2017-11-25T20:29:25.000Z,1007.75
2017-11-25T20:39:25.000Z,1007.912
2017-11-25T20:49:25.000Z,1007.914
2017-11-25T20:59:25.000Z,1007.933
2017-11-25T21:09:25.000Z,1007.952
2017-11-25T21:19:25.000Z,1007.936
2017-11-25T21:29:25.000Z,1008.078
2017-11-25T21:39:25.000Z,1008.126
2017-11-25T21:49:25.000Z,1008.164
2017-11-25T21:59:25.000Z,1008.266
2017-11-25T22:09:25.000Z,1008.279
2017-11-25T22:19:25.000Z,1008.379
2017-11-25T22:29:25.000Z,1008.456
2017-11-25T22:39:25.000Z,1008.438
2017-11-25T22:49:25.000Z,1008.362
2017-11-25T22:59:25.000Z,1008.523
2017-11-25T23:09:25.000Z,1008.483
2017-11-25T23:19:25.000Z,1008.54
2017-11-25T23:29:25.000Z,1008.479
2017-11-25T23:39:25.000Z,1008.57
2017-11-25T23:49:25.000Z,1008.65
2017-11-25T23:59:25.000Z,1008.72
